<?xml version="1.0" encoding="UTF-8" standalone="no" ?>
<gpx xmlns="http://www.topografix.com/GPX/1/1" xmlns:xsi="http://www.w3.org/2001/XMLSchema-instance" xsi:schemaLocation="http://www.topografix.com/GPX/1/1 http://www.topografix.com/GPX/1/1/gpx.xsd" version="1.1" creator="VisuGPX - https://www.visugpx.com">
  <metadata>
    <name> étapes en Corse</name>
    <desc><![CDATA[Etape 1 les Agriates
Etape 2 îles Rousse-Calvi
Etape 3  Galeria Scandola]]></desc>
  </metadata>
  <wpt lat="43.22555" lon="6.44935">
    <ele>54</ele>
    <name><![CDATA[parking]]></name>
    <desc><![CDATA[16-MAI-15 9:26:59]]></desc>
    <cmt><![CDATA[16-MAI-15 9:26:59]]></cmt>
    <type><![CDATA[user]]></type>
  </wpt>
  <wpt lat="43.23505" lon="6.4006">
    <ele>423</ele>
    <name><![CDATA[parking02]]></name>
    <desc><![CDATA[16-MAI-15 12:19:33]]></desc>
    <cmt><![CDATA[16-MAI-15 12:19:33]]></cmt>
    <type><![CDATA[user]]></type>
  </wpt>
  <wpt lat="43.21304" lon="6.4631">
    <ele>42</ele>
    <name><![CDATA[piste]]></name>
    <desc><![CDATA[Chemin]]></desc>
    <cmt><![CDATA[Chemin]]></cmt>
    <type><![CDATA[user]]></type>
  </wpt>
  <trk>
    <name><![CDATA[randogps83-132]]></name>
    <trkseg>
      <trkpt lat="43.22552" lon="6.44932">
        <ele>81.695312</ele>
        <time>2014-07-05T20:00:00Z</time>
      </trkpt>
      <trkpt lat="43.22551" lon="6.44929">
        <ele>82.003906</ele>
        <time>2014-07-05T20:00:05Z</time>
      </trkpt>
      <trkpt lat="43.22566" lon="6.44905">
        <ele>79.023438</ele>
        <time>2014-07-05T20:00:10Z</time>
      </trkpt>
      <trkpt lat="43.22573" lon="6.44887">
        <ele>77.402344</ele>
        <time>2014-07-05T20:00:15Z</time>
      </trkpt>
      <trkpt lat="43.22573" lon="6.44873">
        <ele>77.75</ele>
        <time>2014-07-05T20:00:20Z</time>
      </trkpt>
      <trkpt lat="43.22551" lon="6.44824">
        <ele>84.355469</ele>
        <time>2014-07-05T20:00:25Z</time>
      </trkpt>
      <trkpt lat="43.22551" lon="6.44808">
        <ele>85.421875</ele>
        <time>2014-07-05T20:00:30Z</time>
      </trkpt>
      <trkpt lat="43.22566" lon="6.44787">
        <ele>84.574219</ele>
        <time>2014-07-05T20:00:35Z</time>
      </trkpt>
      <trkpt lat="43.22579" lon="6.44784">
        <ele>82.511719</ele>
        <time>2014-07-05T20:00:40Z</time>
      </trkpt>
      <trkpt lat="43.22597" lon="6.44758">
        <ele>81.410156</ele>
        <time>2014-07-05T20:00:45Z</time>
      </trkpt>
      <trkpt lat="43.22605" lon="6.44732">
        <ele>79.75</ele>
        <time>2014-07-05T20:00:50Z</time>
      </trkpt>
      <trkpt lat="43.22604" lon="6.44732">
        <ele>79.875</ele>
        <time>2014-07-05T20:00:55Z</time>
      </trkpt>
      <trkpt lat="43.22603" lon="6.44715">
        <ele>80.378906</ele>
        <time>2014-07-05T20:01:00Z</time>
      </trkpt>
      <trkpt lat="43.22583" lon="6.44679">
        <ele>87.734375</ele>
        <time>2014-07-05T20:01:05Z</time>
      </trkpt>
      <trkpt lat="43.22575" lon="6.44654">
        <ele>88.769531</ele>
        <time>2014-07-05T20:01:10Z</time>
      </trkpt>
      <trkpt lat="43.22577" lon="6.44616">
        <ele>87.039062</ele>
        <time>2014-07-05T20:01:15Z</time>
      </trkpt>
      <trkpt lat="43.2258" lon="6.44598">
        <ele>85.851562</ele>
        <time>2014-07-05T20:01:20Z</time>
      </trkpt>
      <trkpt lat="43.22599" lon="6.4457">
        <ele>79.359375</ele>
        <time>2014-07-05T20:01:25Z</time>
      </trkpt>
      <trkpt lat="43.22601" lon="6.44541">
        <ele>81.230469</ele>
        <time>2014-07-05T20:01:30Z</time>
      </trkpt>
      <trkpt lat="43.226" lon="6.44514">
        <ele>84.652344</ele>
        <time>2014-07-05T20:01:35Z</time>
      </trkpt>
      <trkpt lat="43.22615" lon="6.44488">
        <ele>80.574219</ele>
        <time>2014-07-05T20:01:40Z</time>
      </trkpt>
      <trkpt lat="43.22615" lon="6.44488">
        <ele>80.539062</ele>
        <time>2014-07-05T20:01:45Z</time>
      </trkpt>
      <trkpt lat="43.2262" lon="6.44458">
        <ele>81.800781</ele>
        <time>2014-07-05T20:01:50Z</time>
      </trkpt>
      <trkpt lat="43.2262" lon="6.44458">
        <ele>81.800781</ele>
        <time>2014-07-05T20:01:55Z</time>
      </trkpt>
      <trkpt lat="43.22619" lon="6.44412">
        <ele>87.042969</ele>
        <time>2014-07-05T20:02:00Z</time>
      </trkpt>
      <trkpt lat="43.22632" lon="6.44377">
        <ele>87.847656</ele>
        <time>2014-07-05T20:02:05Z</time>
      </trkpt>
      <trkpt lat="43.22642" lon="6.44361">
        <ele>87.957031</ele>
        <time>2014-07-05T20:02:10Z</time>
      </trkpt>
      <trkpt lat="43.22664" lon="6.44342">
        <ele>86.660156</ele>
        <time>2014-07-05T20:02:15Z</time>
      </trkpt>
      <trkpt lat="43.2267" lon="6.44321">
        <ele>89.65625</ele>
        <time>2014-07-05T20:02:20Z</time>
      </trkpt>
      <trkpt lat="43.2267" lon="6.44291">
        <ele>93.28125</ele>
        <time>2014-07-05T20:02:25Z</time>
      </trkpt>
      <trkpt lat="43.22657" lon="6.44247">
        <ele>97.390625</ele>
        <time>2014-07-05T20:02:30Z</time>
      </trkpt>
      <trkpt lat="43.22644" lon="6.44222">
        <ele>99.554688</ele>
        <time>2014-07-05T20:02:35Z</time>
      </trkpt>
      <trkpt lat="43.22623" lon="6.44193">
        <ele>103.632812</ele>
        <time>2014-07-05T20:02:40Z</time>
      </trkpt>
      <trkpt lat="43.22623" lon="6.44193">
        <ele>103.675781</ele>
        <time>2014-07-05T20:02:45Z</time>
      </trkpt>
      <trkpt lat="43.22608" lon="6.44153">
        <ele>102.730469</ele>
        <time>2014-07-05T20:02:50Z</time>
      </trkpt>
      <trkpt lat="43.22587" lon="6.4412">
        <ele>103.808594</ele>
        <time>2014-07-05T20:02:55Z</time>
      </trkpt>
      <trkpt lat="43.22553" lon="6.44088">
        <ele>104.0625</ele>
        <time>2014-07-05T20:03:00Z</time>
      </trkpt>
      <trkpt lat="43.22534" lon="6.44066">
        <ele>101.230469</ele>
        <time>2014-07-05T20:03:05Z</time>
      </trkpt>
      <trkpt lat="43.22523" lon="6.44057">
        <ele>100.761719</ele>
        <time>2014-07-05T20:03:10Z</time>
      </trkpt>
      <trkpt lat="43.22523" lon="6.44058">
        <ele>100.871094</ele>
        <time>2014-07-05T20:03:15Z</time>
      </trkpt>
      <trkpt lat="43.22512" lon="6.44051">
        <ele>101.402344</ele>
        <time>2014-07-05T20:03:20Z</time>
      </trkpt>
      <trkpt lat="43.22511" lon="6.44051">
        <ele>101.460938</ele>
        <time>2014-07-05T20:03:25Z</time>
      </trkpt>
      <trkpt lat="43.22497" lon="6.44038">
        <ele>101.785156</ele>
        <time>2014-07-05T20:03:30Z</time>
      </trkpt>
      <trkpt lat="43.22497" lon="6.44038">
        <ele>101.722656</ele>
        <time>2014-07-05T20:03:35Z</time>
      </trkpt>
      <trkpt lat="43.22501" lon="6.44029">
        <ele>98.898438</ele>
        <time>2014-07-05T20:03:40Z</time>
      </trkpt>
      <trkpt lat="43.22517" lon="6.44007">
        <ele>91.652344</ele>
        <time>2014-07-05T20:03:45Z</time>
      </trkpt>
      <trkpt lat="43.22519" lon="6.43994">
        <ele>89.535156</ele>
        <time>2014-07-05T20:03:50Z</time>
      </trkpt>
      <trkpt lat="43.22519" lon="6.43994">
        <ele>89.535156</ele>
        <time>2014-07-05T20:03:55Z</time>
      </trkpt>
      <trkpt lat="43.22515" lon="6.43964">
        <ele>90.53125</ele>
        <time>2014-07-05T20:04:00Z</time>
      </trkpt>
      <trkpt lat="43.22501" lon="6.43926">
        <ele>95.234375</ele>
        <time>2014-07-05T20:04:05Z</time>
      </trkpt>
      <trkpt lat="43.22479" lon="6.43887">
        <ele>102.664062</ele>
        <time>2014-07-05T20:04:10Z</time>
      </trkpt>
      <trkpt lat="43.2248" lon="6.43887">
        <ele>102.660156</ele>
        <time>2014-07-05T20:04:15Z</time>
      </trkpt>
      <trkpt lat="43.22492" lon="6.43887">
        <ele>101.242188</ele>
        <time>2014-07-05T20:04:20Z</time>
      </trkpt>
      <trkpt lat="43.22492" lon="6.43888">
        <ele>101.203125</ele>
        <time>2014-07-05T20:04:25Z</time>
      </trkpt>
      <trkpt lat="43.22522" lon="6.43908">
        <ele>95.113281</ele>
        <time>2014-07-05T20:04:30Z</time>
      </trkpt>
      <trkpt lat="43.22555" lon="6.43921">
        <ele>92.273438</ele>
        <time>2014-07-05T20:04:35Z</time>
      </trkpt>
      <trkpt lat="43.22582" lon="6.43924">
        <ele>92.519531</ele>
        <time>2014-07-05T20:04:40Z</time>
      </trkpt>
      <trkpt lat="43.22615" lon="6.43934">
        <ele>92.78125</ele>
        <time>2014-07-05T20:04:45Z</time>
      </trkpt>
      <trkpt lat="43.22628" lon="6.43942">
        <ele>91.238281</ele>
        <time>2014-07-05T20:04:50Z</time>
      </trkpt>
      <trkpt lat="43.22658" lon="6.43951">
        <ele>89.265625</ele>
        <time>2014-07-05T20:04:55Z</time>
      </trkpt>
      <trkpt lat="43.22669" lon="6.43948">
        <ele>89.066406</ele>
        <time>2014-07-05T20:05:00Z</time>
      </trkpt>
      <trkpt lat="43.22681" lon="6.43942">
        <ele>88.460938</ele>
        <time>2014-07-05T20:05:05Z</time>
      </trkpt>
      <trkpt lat="43.22682" lon="6.43941">
        <ele>88.511719</ele>
        <time>2014-07-05T20:05:10Z</time>
      </trkpt>
      <trkpt lat="43.22701" lon="6.43922">
        <ele>88.546875</ele>
        <time>2014-07-05T20:05:15Z</time>
      </trkpt>
      <trkpt lat="43.22725" lon="6.43882">
        <ele>88.148438</ele>
        <time>2014-07-05T20:05:20Z</time>
      </trkpt>
      <trkpt lat="43.22754" lon="6.43823">
        <ele>87.851562</ele>
        <time>2014-07-05T20:05:25Z</time>
      </trkpt>
      <trkpt lat="43.22753" lon="6.438">
        <ele>89.699219</ele>
        <time>2014-07-05T20:05:30Z</time>
      </trkpt>
      <trkpt lat="43.22758" lon="6.43788">
        <ele>89.691406</ele>
        <time>2014-07-05T20:05:35Z</time>
      </trkpt>
      <trkpt lat="43.22772" lon="6.43772">
        <ele>86.789062</ele>
        <time>2014-07-05T20:05:40Z</time>
      </trkpt>
      <trkpt lat="43.22775" lon="6.43751">
        <ele>87.058594</ele>
        <time>2014-07-05T20:05:45Z</time>
      </trkpt>
      <trkpt lat="43.22769" lon="6.4368">
        <ele>94.53125</ele>
        <time>2014-07-05T20:05:50Z</time>
      </trkpt>
      <trkpt lat="43.22773" lon="6.43659">
        <ele>96.046875</ele>
        <time>2014-07-05T20:05:55Z</time>
      </trkpt>
      <trkpt lat="43.22782" lon="6.43656">
        <ele>94.597656</ele>
        <time>2014-07-05T20:06:00Z</time>
      </trkpt>
      <trkpt lat="43.22793" lon="6.43658">
        <ele>94.59375</ele>
        <time>2014-07-05T20:06:05Z</time>
      </trkpt>
      <trkpt lat="43.22793" lon="6.43658">
        <ele>94.484375</ele>
        <time>2014-07-05T20:06:10Z</time>
      </trkpt>
      <trkpt lat="43.22834" lon="6.4368">
        <ele>90.175781</ele>
        <time>2014-07-05T20:06:15Z</time>
      </trkpt>
      <trkpt lat="43.22874" lon="6.43689">
        <ele>86.945312</ele>
        <time>2014-07-05T20:06:20Z</time>
      </trkpt>
      <trkpt lat="43.22894" lon="6.43687">
        <ele>85.777344</ele>
        <time>2014-07-05T20:06:25Z</time>
      </trkpt>
      <trkpt lat="43.22924" lon="6.43674">
        <ele>84.875</ele>
        <time>2014-07-05T20:06:30Z</time>
      </trkpt>
      <trkpt lat="43.22968" lon="6.43646">
        <ele>84.414062</ele>
        <time>2014-07-05T20:06:35Z</time>
      </trkpt>
      <trkpt lat="43.22979" lon="6.43628">
        <ele>84.203125</ele>
        <time>2014-07-05T20:06:40Z</time>
      </trkpt>
      <trkpt lat="43.22984" lon="6.43606">
        <ele>84.09375</ele>
        <time>2014-07-05T20:06:45Z</time>
      </trkpt>
      <trkpt lat="43.22972" lon="6.43558">
        <ele>88.644531</ele>
        <time>2014-07-05T20:06:50Z</time>
      </trkpt>
      <trkpt lat="43.22975" lon="6.43537">
        <ele>87.835938</ele>
        <time>2014-07-05T20:06:55Z</time>
      </trkpt>
      <trkpt lat="43.22984" lon="6.43476">
        <ele>85.207031</ele>
        <time>2014-07-05T20:07:00Z</time>
      </trkpt>
      <trkpt lat="43.22997" lon="6.43409">
        <ele>85.246094</ele>
        <time>2014-07-05T20:07:05Z</time>
      </trkpt>
      <trkpt lat="43.22997" lon="6.43409">
        <ele>85.210938</ele>
        <time>2014-07-05T20:07:10Z</time>
      </trkpt>
      <trkpt lat="43.22999" lon="6.43381">
        <ele>87.28125</ele>
        <time>2014-07-05T20:07:15Z</time>
      </trkpt>
      <trkpt lat="43.22994" lon="6.43349">
        <ele>89.355469</ele>
        <time>2014-07-05T20:07:20Z</time>
      </trkpt>
      <trkpt lat="43.22994" lon="6.43349">
        <ele>89.34375</ele>
        <time>2014-07-05T20:07:25Z</time>
      </trkpt>
      <trkpt lat="43.23007" lon="6.43323">
        <ele>85.824219</ele>
        <time>2014-07-05T20:07:30Z</time>
      </trkpt>
      <trkpt lat="43.23008" lon="6.43279">
        <ele>88.851562</ele>
        <time>2014-07-05T20:07:35Z</time>
      </trkpt>
      <trkpt lat="43.23061" lon="6.43233">
        <ele>83.472656</ele>
        <time>2014-07-05T20:07:40Z</time>
      </trkpt>
      <trkpt lat="43.23075" lon="6.43209">
        <ele>84.859375</ele>
        <time>2014-07-05T20:07:45Z</time>
      </trkpt>
      <trkpt lat="43.23078" lon="6.43181">
        <ele>86.550781</ele>
        <time>2014-07-05T20:07:50Z</time>
      </trkpt>
      <trkpt lat="43.23078" lon="6.43181">
        <ele>86.550781</ele>
        <time>2014-07-05T20:07:55Z</time>
      </trkpt>
      <trkpt lat="43.23077" lon="6.43158">
        <ele>86.953125</ele>
        <time>2014-07-05T20:08:00Z</time>
      </trkpt>
      <trkpt lat="43.23059" lon="6.43116">
        <ele>94.171875</ele>
        <time>2014-07-05T20:08:05Z</time>
      </trkpt>
      <trkpt lat="43.23064" lon="6.43098">
        <ele>94.757812</ele>
        <time>2014-07-05T20:08:10Z</time>
      </trkpt>
      <trkpt lat="43.23092" lon="6.43088">
        <ele>88.109375</ele>
        <time>2014-07-05T20:08:15Z</time>
      </trkpt>
      <trkpt lat="43.23122" lon="6.43076">
        <ele>82.59375</ele>
        <time>2014-07-05T20:08:20Z</time>
      </trkpt>
      <trkpt lat="43.23131" lon="6.43062">
        <ele>82.648438</ele>
        <time>2014-07-05T20:08:25Z</time>
      </trkpt>
      <trkpt lat="43.23146" lon="6.43">
        <ele>84.21875</ele>
        <time>2014-07-05T20:08:30Z</time>
      </trkpt>
      <trkpt lat="43.23156" lon="6.42948">
        <ele>85.554688</ele>
        <time>2014-07-05T20:08:35Z</time>
      </trkpt>
      <trkpt lat="43.2317" lon="6.42891">
        <ele>85.25</ele>
        <time>2014-07-05T20:08:40Z</time>
      </trkpt>
      <trkpt lat="43.23175" lon="6.4284">
        <ele>86.460938</ele>
        <time>2014-07-05T20:08:45Z</time>
      </trkpt>
      <trkpt lat="43.23178" lon="6.42775">
        <ele>86.863281</ele>
        <time>2014-07-05T20:08:50Z</time>
      </trkpt>
      <trkpt lat="43.23174" lon="6.42737">
        <ele>86.992188</ele>
        <time>2014-07-05T20:08:55Z</time>
      </trkpt>
      <trkpt lat="43.2316" lon="6.42716">
        <ele>89.535156</ele>
        <time>2014-07-05T20:09:00Z</time>
      </trkpt>
      <trkpt lat="43.2316" lon="6.42717">
        <ele>89.59375</ele>
        <time>2014-07-05T20:09:05Z</time>
      </trkpt>
      <trkpt lat="43.23126" lon="6.4271">
        <ele>98.246094</ele>
        <time>2014-07-05T20:09:10Z</time>
      </trkpt>
      <trkpt lat="43.2312" lon="6.42699">
        <ele>98.546875</ele>
        <time>2014-07-05T20:09:15Z</time>
      </trkpt>
      <trkpt lat="43.23117" lon="6.42628">
        <ele>92.402344</ele>
        <time>2014-07-05T20:09:20Z</time>
      </trkpt>
      <trkpt lat="43.23117" lon="6.42629">
        <ele>92.421875</ele>
        <time>2014-07-05T20:09:25Z</time>
      </trkpt>
      <trkpt lat="43.23106" lon="6.42594">
        <ele>94.675781</ele>
        <time>2014-07-05T20:09:30Z</time>
      </trkpt>
      <trkpt lat="43.23106" lon="6.42594">
        <ele>94.6875</ele>
        <time>2014-07-05T20:09:35Z</time>
      </trkpt>
      <trkpt lat="43.2309" lon="6.42474">
        <ele>97.042969</ele>
        <time>2014-07-05T20:09:40Z</time>
      </trkpt>
      <trkpt lat="43.2309" lon="6.42474">
        <ele>97.035156</ele>
        <time>2014-07-05T20:09:45Z</time>
      </trkpt>
      <trkpt lat="43.23093" lon="6.42456">
        <ele>97.984375</ele>
        <time>2014-07-05T20:09:50Z</time>
      </trkpt>
      <trkpt lat="43.23093" lon="6.42455">
        <ele>98</ele>
        <time>2014-07-05T20:09:55Z</time>
      </trkpt>
      <trkpt lat="43.23097" lon="6.4245">
        <ele>98.730469</ele>
        <time>2014-07-05T20:10:00Z</time>
      </trkpt>
      <trkpt lat="43.23098" lon="6.42451">
        <ele>98.792969</ele>
        <time>2014-07-05T20:10:05Z</time>
      </trkpt>
      <trkpt lat="43.23105" lon="6.42449">
        <ele>99.734375</ele>
        <time>2014-07-05T20:10:10Z</time>
      </trkpt>
      <trkpt lat="43.23106" lon="6.4245">
        <ele>99.660156</ele>
        <time>2014-07-05T20:10:15Z</time>
      </trkpt>
      <trkpt lat="43.23115" lon="6.42457">
        <ele>99.824219</ele>
        <time>2014-07-05T20:10:20Z</time>
      </trkpt>
      <trkpt lat="43.23116" lon="6.42458">
        <ele>99.660156</ele>
        <time>2014-07-05T20:10:25Z</time>
      </trkpt>
      <trkpt lat="43.23128" lon="6.4249">
        <ele>99.945312</ele>
        <time>2014-07-05T20:10:30Z</time>
      </trkpt>
      <trkpt lat="43.23143" lon="6.42506">
        <ele>102.597656</ele>
        <time>2014-07-05T20:10:35Z</time>
      </trkpt>
      <trkpt lat="43.23143" lon="6.42507">
        <ele>102.550781</ele>
        <time>2014-07-05T20:10:40Z</time>
      </trkpt>
      <trkpt lat="43.23153" lon="6.42523">
        <ele>102.308594</ele>
        <time>2014-07-05T20:10:45Z</time>
      </trkpt>
      <trkpt lat="43.23155" lon="6.42538">
        <ele>99.414062</ele>
        <time>2014-07-05T20:10:50Z</time>
      </trkpt>
      <trkpt lat="43.23155" lon="6.42539">
        <ele>99.371094</ele>
        <time>2014-07-05T20:10:55Z</time>
      </trkpt>
      <trkpt lat="43.23167" lon="6.42562">
        <ele>95.726562</ele>
        <time>2014-07-05T20:11:00Z</time>
      </trkpt>
      <trkpt lat="43.23167" lon="6.42563">
        <ele>95.636719</ele>
        <time>2014-07-05T20:11:05Z</time>
      </trkpt>
      <trkpt lat="43.23204" lon="6.42604">
        <ele>91.761719</ele>
        <time>2014-07-05T20:11:10Z</time>
      </trkpt>
      <trkpt lat="43.23231" lon="6.42606">
        <ele>95.363281</ele>
        <time>2014-07-05T20:11:15Z</time>
      </trkpt>
      <trkpt lat="43.23257" lon="6.42631">
        <ele>93.757812</ele>
        <time>2014-07-05T20:11:20Z</time>
      </trkpt>
      <trkpt lat="43.23289" lon="6.42655">
        <ele>95.003906</ele>
        <time>2014-07-05T20:11:25Z</time>
      </trkpt>
      <trkpt lat="43.2332" lon="6.42686">
        <ele>92.410156</ele>
        <time>2014-07-05T20:11:30Z</time>
      </trkpt>
      <trkpt lat="43.23346" lon="6.42707">
        <ele>89.097656</ele>
        <time>2014-07-05T20:11:35Z</time>
      </trkpt>
      <trkpt lat="43.23368" lon="6.42717">
        <ele>85.398438</ele>
        <time>2014-07-05T20:11:40Z</time>
      </trkpt>
      <trkpt lat="43.23386" lon="6.42716">
        <ele>84.5</ele>
        <time>2014-07-05T20:11:45Z</time>
      </trkpt>
      <trkpt lat="43.23411" lon="6.42711">
        <ele>83.261719</ele>
        <time>2014-07-05T20:11:50Z</time>
      </trkpt>
      <trkpt lat="43.23431" lon="6.42696">
        <ele>83.503906</ele>
        <time>2014-07-05T20:11:55Z</time>
      </trkpt>
      <trkpt lat="43.23466" lon="6.42666">
        <ele>84.078125</ele>
        <time>2014-07-05T20:12:00Z</time>
      </trkpt>
      <trkpt lat="43.23509" lon="6.42633">
        <ele>85.660156</ele>
        <time>2014-07-05T20:12:05Z</time>
      </trkpt>
      <trkpt lat="43.23542" lon="6.42621">
        <ele>86.824219</ele>
        <time>2014-07-05T20:12:10Z</time>
      </trkpt>
      <trkpt lat="43.23562" lon="6.42615">
        <ele>87.867188</ele>
        <time>2014-07-05T20:12:15Z</time>
      </trkpt>
      <trkpt lat="43.23592" lon="6.42615">
        <ele>86.210938</ele>
        <time>2014-07-05T20:12:20Z</time>
      </trkpt>
      <trkpt lat="43.23667" lon="6.42594">
        <ele>84.976562</ele>
        <time>2014-07-05T20:12:25Z</time>
      </trkpt>
      <trkpt lat="43.23683" lon="6.42589">
        <ele>83.519531</ele>
        <time>2014-07-05T20:12:30Z</time>
      </trkpt>
      <trkpt lat="43.2369" lon="6.42586">
        <ele>82.828125</ele>
        <time>2014-07-05T20:12:35Z</time>
      </trkpt>
      <trkpt lat="43.23694" lon="6.42577">
        <ele>82.890625</ele>
        <time>2014-07-05T20:12:40Z</time>
      </trkpt>
      <trkpt lat="43.23693" lon="6.42559">
        <ele>83.65625</ele>
        <time>2014-07-05T20:12:45Z</time>
      </trkpt>
      <trkpt lat="43.23687" lon="6.42544">
        <ele>84.777344</ele>
        <time>2014-07-05T20:12:50Z</time>
      </trkpt>
      <trkpt lat="43.23658" lon="6.42484">
        <ele>89.371094</ele>
        <time>2014-07-05T20:12:55Z</time>
      </trkpt>
      <trkpt lat="43.23641" lon="6.42451">
        <ele>91.472656</ele>
        <time>2014-07-05T20:13:00Z</time>
      </trkpt>
      <trkpt lat="43.2363" lon="6.42423">
        <ele>90.996094</ele>
        <time>2014-07-05T20:13:05Z</time>
      </trkpt>
      <trkpt lat="43.23608" lon="6.42403">
        <ele>95.578125</ele>
        <time>2014-07-05T20:13:10Z</time>
      </trkpt>
      <trkpt lat="43.23594" lon="6.42377">
        <ele>97.253906</ele>
        <time>2014-07-05T20:13:15Z</time>
      </trkpt>
      <trkpt lat="43.2359" lon="6.42338">
        <ele>92.394531</ele>
        <time>2014-07-05T20:13:20Z</time>
      </trkpt>
      <trkpt lat="43.23584" lon="6.4231">
        <ele>92.011719</ele>
        <time>2014-07-05T20:13:25Z</time>
      </trkpt>
      <trkpt lat="43.23583" lon="6.42285">
        <ele>91.492188</ele>
        <time>2014-07-05T20:13:30Z</time>
      </trkpt>
      <trkpt lat="43.23592" lon="6.42245">
        <ele>88.269531</ele>
        <time>2014-07-05T20:13:35Z</time>
      </trkpt>
      <trkpt lat="43.2359" lon="6.42196">
        <ele>89.515625</ele>
        <time>2014-07-05T20:13:40Z</time>
      </trkpt>
      <trkpt lat="43.23596" lon="6.42157">
        <ele>89.652344</ele>
        <time>2014-07-05T20:13:45Z</time>
      </trkpt>
      <trkpt lat="43.23596" lon="6.42157">
        <ele>89.632812</ele>
        <time>2014-07-05T20:13:50Z</time>
      </trkpt>
      <trkpt lat="43.23612" lon="6.42081">
        <ele>90.390625</ele>
        <time>2014-07-05T20:13:55Z</time>
      </trkpt>
      <trkpt lat="43.23628" lon="6.42057">
        <ele>90.332031</ele>
        <time>2014-07-05T20:14:00Z</time>
      </trkpt>
      <trkpt lat="43.23636" lon="6.42029">
        <ele>91.671875</ele>
        <time>2014-07-05T20:14:05Z</time>
      </trkpt>
      <trkpt lat="43.23641" lon="6.41989">
        <ele>92.144531</ele>
        <time>2014-07-05T20:14:10Z</time>
      </trkpt>
      <trkpt lat="43.23649" lon="6.41922">
        <ele>91.011719</ele>
        <time>2014-07-05T20:14:15Z</time>
      </trkpt>
      <trkpt lat="43.2366" lon="6.41904">
        <ele>86.980469</ele>
        <time>2014-07-05T20:14:20Z</time>
      </trkpt>
      <trkpt lat="43.23664" lon="6.41882">
        <ele>85.347656</ele>
        <time>2014-07-05T20:14:25Z</time>
      </trkpt>
      <trkpt lat="43.23667" lon="6.41831">
        <ele>88.222656</ele>
        <time>2014-07-05T20:14:30Z</time>
      </trkpt>
      <trkpt lat="43.23676" lon="6.41809">
        <ele>91.976562</ele>
        <time>2014-07-05T20:14:35Z</time>
      </trkpt>
      <trkpt lat="43.23686" lon="6.41801">
        <ele>95.351562</ele>
        <time>2014-07-05T20:14:40Z</time>
      </trkpt>
      <trkpt lat="43.23695" lon="6.41806">
        <ele>94.824219</ele>
        <time>2014-07-05T20:14:45Z</time>
      </trkpt>
      <trkpt lat="43.23721" lon="6.41844">
        <ele>88.527344</ele>
        <time>2014-07-05T20:14:50Z</time>
      </trkpt>
      <trkpt lat="43.23742" lon="6.41857">
        <ele>88.632812</ele>
        <time>2014-07-05T20:14:55Z</time>
      </trkpt>
      <trkpt lat="43.23756" lon="6.41861">
        <ele>89.308594</ele>
        <time>2014-07-05T20:15:00Z</time>
      </trkpt>
      <trkpt lat="43.23772" lon="6.41859">
        <ele>90.304688</ele>
        <time>2014-07-05T20:15:05Z</time>
      </trkpt>
      <trkpt lat="43.23791" lon="6.41856">
        <ele>91.761719</ele>
        <time>2014-07-05T20:15:10Z</time>
      </trkpt>
      <trkpt lat="43.23805" lon="6.41834">
        <ele>89.621094</ele>
        <time>2014-07-05T20:15:15Z</time>
      </trkpt>
      <trkpt lat="43.2382" lon="6.4182">
        <ele>92.90625</ele>
        <time>2014-07-05T20:15:20Z</time>
      </trkpt>
      <trkpt lat="43.23837" lon="6.41778">
        <ele>96.957031</ele>
        <time>2014-07-05T20:15:25Z</time>
      </trkpt>
      <trkpt lat="43.23838" lon="6.41778">
        <ele>96.925781</ele>
        <time>2014-07-05T20:15:30Z</time>
      </trkpt>
      <trkpt lat="43.23846" lon="6.41748">
        <ele>98.851562</ele>
        <time>2014-07-05T20:15:35Z</time>
      </trkpt>
      <trkpt lat="43.23876" lon="6.41688">
        <ele>95.683594</ele>
        <time>2014-07-05T20:15:40Z</time>
      </trkpt>
      <trkpt lat="43.23892" lon="6.41602">
        <ele>97.699219</ele>
        <time>2014-07-05T20:15:45Z</time>
      </trkpt>
      <trkpt lat="43.23897" lon="6.41573">
        <ele>97.449219</ele>
        <time>2014-07-05T20:15:50Z</time>
      </trkpt>
      <trkpt lat="43.2389" lon="6.41548">
        <ele>96.824219</ele>
        <time>2014-07-05T20:15:55Z</time>
      </trkpt>
      <trkpt lat="43.23891" lon="6.4152">
        <ele>95.648438</ele>
        <time>2014-07-05T20:16:00Z</time>
      </trkpt>
      <trkpt lat="43.23889" lon="6.41493">
        <ele>95.480469</ele>
        <time>2014-07-05T20:16:05Z</time>
      </trkpt>
      <trkpt lat="43.23887" lon="6.41475">
        <ele>96.996094</ele>
        <time>2014-07-05T20:16:10Z</time>
      </trkpt>
      <trkpt lat="43.23884" lon="6.41468">
        <ele>98.105469</ele>
        <time>2014-07-05T20:16:15Z</time>
      </trkpt>
      <trkpt lat="43.23888" lon="6.41451">
        <ele>97.941406</ele>
        <time>2014-07-05T20:16:20Z</time>
      </trkpt>
      <trkpt lat="43.23894" lon="6.41442">
        <ele>97.007812</ele>
        <time>2014-07-05T20:16:25Z</time>
      </trkpt>
      <trkpt lat="43.23906" lon="6.41429">
        <ele>96.628906</ele>
        <time>2014-07-05T20:16:30Z</time>
      </trkpt>
      <trkpt lat="43.23919" lon="6.41397">
        <ele>96.753906</ele>
        <time>2014-07-05T20:16:35Z</time>
      </trkpt>
      <trkpt lat="43.23919" lon="6.41397">
        <ele>96.730469</ele>
        <time>2014-07-05T20:16:40Z</time>
      </trkpt>
      <trkpt lat="43.23918" lon="6.41358">
        <ele>101.488281</ele>
        <time>2014-07-05T20:16:45Z</time>
      </trkpt>
      <trkpt lat="43.23912" lon="6.41351">
        <ele>105.21875</ele>
        <time>2014-07-05T20:16:50Z</time>
      </trkpt>
      <trkpt lat="43.23914" lon="6.41344">
        <ele>106.296875</ele>
        <time>2014-07-05T20:16:55Z</time>
      </trkpt>
      <trkpt lat="43.2395" lon="6.41331">
        <ele>101.097656</ele>
        <time>2014-07-05T20:17:00Z</time>
      </trkpt>
      <trkpt lat="43.23956" lon="6.41325">
        <ele>102.507812</ele>
        <time>2014-07-05T20:17:05Z</time>
      </trkpt>
      <trkpt lat="43.23962" lon="6.4131">
        <ele>106.421875</ele>
        <time>2014-07-05T20:17:10Z</time>
      </trkpt>
      <trkpt lat="43.23983" lon="6.41283">
        <ele>112.941406</ele>
        <time>2014-07-05T20:17:15Z</time>
      </trkpt>
      <trkpt lat="43.23989" lon="6.41282">
        <ele>112.601562</ele>
        <time>2014-07-05T20:17:20Z</time>
      </trkpt>
      <trkpt lat="43.23999" lon="6.41286">
        <ele>110.59375</ele>
        <time>2014-07-05T20:17:25Z</time>
      </trkpt>
      <trkpt lat="43.23997" lon="6.41278">
        <ele>113.019531</ele>
        <time>2014-07-05T20:17:30Z</time>
      </trkpt>
      <trkpt lat="43.2402" lon="6.41279">
        <ele>110.078125</ele>
        <time>2014-07-05T20:17:35Z</time>
      </trkpt>
      <trkpt lat="43.24015" lon="6.41266">
        <ele>112.957031</ele>
        <time>2014-07-05T20:17:40Z</time>
      </trkpt>
      <trkpt lat="43.24027" lon="6.41252">
        <ele>112.125</ele>
        <time>2014-07-05T20:17:45Z</time>
      </trkpt>
      <trkpt lat="43.24037" lon="6.41252">
        <ele>109.699219</ele>
        <time>2014-07-05T20:17:50Z</time>
      </trkpt>
      <trkpt lat="43.24043" lon="6.41229">
        <ele>108.628906</ele>
        <time>2014-07-05T20:17:55Z</time>
      </trkpt>
      <trkpt lat="43.2403" lon="6.41199">
        <ele>111.894531</ele>
        <time>2014-07-05T20:18:00Z</time>
      </trkpt>
      <trkpt lat="43.24015" lon="6.41167">
        <ele>117.285156</ele>
        <time>2014-07-05T20:18:05Z</time>
      </trkpt>
      <trkpt lat="43.24002" lon="6.41123">
        <ele>118.402344</ele>
        <time>2014-07-05T20:18:10Z</time>
      </trkpt>
      <trkpt lat="43.24003" lon="6.41124">
        <ele>118.265625</ele>
        <time>2014-07-05T20:18:15Z</time>
      </trkpt>
      <trkpt lat="43.23976" lon="6.41078">
        <ele>136.605469</ele>
        <time>2014-07-05T20:18:20Z</time>
      </trkpt>
      <trkpt lat="43.23976" lon="6.41078">
        <ele>136.785156</ele>
        <time>2014-07-05T20:18:25Z</time>
      </trkpt>
      <trkpt lat="43.23952" lon="6.41073">
        <ele>152.917969</ele>
        <time>2014-07-05T20:18:30Z</time>
      </trkpt>
      <trkpt lat="43.23952" lon="6.41073">
        <ele>152.925781</ele>
        <time>2014-07-05T20:18:35Z</time>
      </trkpt>
      <trkpt lat="43.23933" lon="6.41081">
        <ele>163.800781</ele>
        <time>2014-07-05T20:18:40Z</time>
      </trkpt>
      <trkpt lat="43.23933" lon="6.41081">
        <ele>163.8125</ele>
        <time>2014-07-05T20:18:45Z</time>
      </trkpt>
      <trkpt lat="43.23924" lon="6.41077">
        <ele>169.257812</ele>
        <time>2014-07-05T20:18:50Z</time>
      </trkpt>
      <trkpt lat="43.23924" lon="6.41077">
        <ele>169.269531</ele>
        <time>2014-07-05T20:18:55Z</time>
      </trkpt>
      <trkpt lat="43.23917" lon="6.41066">
        <ele>172.476562</ele>
        <time>2014-07-05T20:19:00Z</time>
      </trkpt>
      <trkpt lat="43.23913" lon="6.41058">
        <ele>174.550781</ele>
        <time>2014-07-05T20:19:05Z</time>
      </trkpt>
      <trkpt lat="43.23913" lon="6.41059">
        <ele>174.558594</ele>
        <time>2014-07-05T20:19:10Z</time>
      </trkpt>
      <trkpt lat="43.239" lon="6.41049">
        <ele>182.25</ele>
        <time>2014-07-05T20:19:15Z</time>
      </trkpt>
      <trkpt lat="43.23876" lon="6.4105">
        <ele>195.125</ele>
        <time>2014-07-05T20:19:20Z</time>
      </trkpt>
      <trkpt lat="43.23876" lon="6.4105">
        <ele>195.109375</ele>
        <time>2014-07-05T20:19:25Z</time>
      </trkpt>
      <trkpt lat="43.23862" lon="6.41039">
        <ele>202.921875</ele>
        <time>2014-07-05T20:19:30Z</time>
      </trkpt>
      <trkpt lat="43.23862" lon="6.4104">
        <ele>202.867188</ele>
        <time>2014-07-05T20:19:35Z</time>
      </trkpt>
      <trkpt lat="43.2385" lon="6.41022">
        <ele>211.59375</ele>
        <time>2014-07-05T20:19:40Z</time>
      </trkpt>
      <trkpt lat="43.23843" lon="6.40999">
        <ele>221.820312</ele>
        <time>2014-07-05T20:19:45Z</time>
      </trkpt>
      <trkpt lat="43.23838" lon="6.40975">
        <ele>231.339844</ele>
        <time>2014-07-05T20:19:50Z</time>
      </trkpt>
      <trkpt lat="43.23831" lon="6.40964">
        <ele>238.796875</ele>
        <time>2014-07-05T20:19:55Z</time>
      </trkpt>
      <trkpt lat="43.23825" lon="6.40956">
        <ele>245.457031</ele>
        <time>2014-07-05T20:20:00Z</time>
      </trkpt>
      <trkpt lat="43.2382" lon="6.40937">
        <ele>254.929688</ele>
        <time>2014-07-05T20:20:05Z</time>
      </trkpt>
      <trkpt lat="43.23813" lon="6.40904">
        <ele>272.066406</ele>
        <time>2014-07-05T20:20:10Z</time>
      </trkpt>
      <trkpt lat="43.23796" lon="6.40876">
        <ele>290.378906</ele>
        <time>2014-07-05T20:20:15Z</time>
      </trkpt>
      <trkpt lat="43.23789" lon="6.40879">
        <ele>292.96875</ele>
        <time>2014-07-05T20:20:20Z</time>
      </trkpt>
      <trkpt lat="43.23767" lon="6.40906">
        <ele>293.027344</ele>
        <time>2014-07-05T20:20:25Z</time>
      </trkpt>
      <trkpt lat="43.23752" lon="6.40908">
        <ele>300.277344</ele>
        <time>2014-07-05T20:20:30Z</time>
      </trkpt>
      <trkpt lat="43.23737" lon="6.40897">
        <ele>311.792969</ele>
        <time>2014-07-05T20:20:35Z</time>
      </trkpt>
      <trkpt lat="43.23722" lon="6.40878">
        <ele>325.871094</ele>
        <time>2014-07-05T20:20:40Z</time>
      </trkpt>
      <trkpt lat="43.23717" lon="6.40857">
        <ele>334.074219</ele>
        <time>2014-07-05T20:20:45Z</time>
      </trkpt>
      <trkpt lat="43.23708" lon="6.40861">
        <ele>336.78125</ele>
        <time>2014-07-05T20:20:50Z</time>
      </trkpt>
      <trkpt lat="43.23708" lon="6.40861">
        <ele>336.6875</ele>
        <time>2014-07-05T20:20:55Z</time>
      </trkpt>
      <trkpt lat="43.23701" lon="6.40846">
        <ele>343.535156</ele>
        <time>2014-07-05T20:21:00Z</time>
      </trkpt>
      <trkpt lat="43.23701" lon="6.40846">
        <ele>343.449219</ele>
        <time>2014-07-05T20:21:05Z</time>
      </trkpt>
      <trkpt lat="43.23705" lon="6.40813">
        <ele>347.78125</ele>
        <time>2014-07-05T20:21:10Z</time>
      </trkpt>
      <trkpt lat="43.23693" lon="6.40759">
        <ele>354.546875</ele>
        <time>2014-07-05T20:21:15Z</time>
      </trkpt>
      <trkpt lat="43.23693" lon="6.4076">
        <ele>354.546875</ele>
        <time>2014-07-05T20:21:20Z</time>
      </trkpt>
      <trkpt lat="43.23678" lon="6.40739">
        <ele>357.382812</ele>
        <time>2014-07-05T20:21:25Z</time>
      </trkpt>
      <trkpt lat="43.23678" lon="6.40739">
        <ele>357.417969</ele>
        <time>2014-07-05T20:21:30Z</time>
      </trkpt>
      <trkpt lat="43.23644" lon="6.40713">
        <ele>361.832031</ele>
        <time>2014-07-05T20:21:35Z</time>
      </trkpt>
      <trkpt lat="43.23634" lon="6.40694">
        <ele>361.242188</ele>
        <time>2014-07-05T20:21:40Z</time>
      </trkpt>
      <trkpt lat="43.23609" lon="6.40669">
        <ele>360.703125</ele>
        <time>2014-07-05T20:21:45Z</time>
      </trkpt>
      <trkpt lat="43.23608" lon="6.40668">
        <ele>360.671875</ele>
        <time>2014-07-05T20:21:50Z</time>
      </trkpt>
      <trkpt lat="43.23595" lon="6.40659">
        <ele>361.679688</ele>
        <time>2014-07-05T20:21:55Z</time>
      </trkpt>
      <trkpt lat="43.23571" lon="6.40657">
        <ele>366.910156</ele>
        <time>2014-07-05T20:22:00Z</time>
      </trkpt>
      <trkpt lat="43.23569" lon="6.40659">
        <ele>368.132812</ele>
        <time>2014-07-05T20:22:05Z</time>
      </trkpt>
      <trkpt lat="43.23569" lon="6.40664">
        <ele>369.359375</ele>
        <time>2014-07-05T20:22:10Z</time>
      </trkpt>
      <trkpt lat="43.2357" lon="6.40664">
        <ele>369.160156</ele>
        <time>2014-07-05T20:22:15Z</time>
      </trkpt>
      <trkpt lat="43.23576" lon="6.40669">
        <ele>368.84375</ele>
        <time>2014-07-05T20:22:20Z</time>
      </trkpt>
      <trkpt lat="43.23603" lon="6.40701">
        <ele>369.339844</ele>
        <time>2014-07-05T20:22:25Z</time>
      </trkpt>
      <trkpt lat="43.23627" lon="6.40754">
        <ele>370.453125</ele>
        <time>2014-07-05T20:22:30Z</time>
      </trkpt>
      <trkpt lat="43.23633" lon="6.40779">
        <ele>370.113281</ele>
        <time>2014-07-05T20:22:35Z</time>
      </trkpt>
      <trkpt lat="43.23633" lon="6.40799">
        <ele>370.734375</ele>
        <time>2014-07-05T20:22:40Z</time>
      </trkpt>
      <trkpt lat="43.2363" lon="6.40818">
        <ele>371.863281</ele>
        <time>2014-07-05T20:22:45Z</time>
      </trkpt>
      <trkpt lat="43.23626" lon="6.40836">
        <ele>372.183594</ele>
        <time>2014-07-05T20:22:50Z</time>
      </trkpt>
      <trkpt lat="43.23622" lon="6.40847">
        <ele>371.332031</ele>
        <time>2014-07-05T20:22:55Z</time>
      </trkpt>
      <trkpt lat="43.23622" lon="6.40847">
        <ele>371.390625</ele>
        <time>2014-07-05T20:23:00Z</time>
      </trkpt>
      <trkpt lat="43.23615" lon="6.40799">
        <ele>375.886719</ele>
        <time>2014-07-05T20:23:05Z</time>
      </trkpt>
      <trkpt lat="43.23594" lon="6.40752">
        <ele>379.492188</ele>
        <time>2014-07-05T20:23:10Z</time>
      </trkpt>
      <trkpt lat="43.23577" lon="6.40724">
        <ele>379.757812</ele>
        <time>2014-07-05T20:23:15Z</time>
      </trkpt>
      <trkpt lat="43.23577" lon="6.40724">
        <ele>379.816406</ele>
        <time>2014-07-05T20:23:20Z</time>
      </trkpt>
      <trkpt lat="43.23563" lon="6.4071">
        <ele>381.328125</ele>
        <time>2014-07-05T20:23:25Z</time>
      </trkpt>
      <trkpt lat="43.23508" lon="6.40681">
        <ele>388.453125</ele>
        <time>2014-07-05T20:23:30Z</time>
      </trkpt>
      <trkpt lat="43.23448" lon="6.40623">
        <ele>388.117188</ele>
        <time>2014-07-05T20:23:35Z</time>
      </trkpt>
      <trkpt lat="43.23431" lon="6.40613">
        <ele>389.421875</ele>
        <time>2014-07-05T20:23:40Z</time>
      </trkpt>
      <trkpt lat="43.23392" lon="6.40593">
        <ele>395.582031</ele>
        <time>2014-07-05T20:23:45Z</time>
      </trkpt>
      <trkpt lat="43.23376" lon="6.40589">
        <ele>398.261719</ele>
        <time>2014-07-05T20:23:50Z</time>
      </trkpt>
      <trkpt lat="43.23369" lon="6.40574">
        <ele>397.085938</ele>
        <time>2014-07-05T20:23:55Z</time>
      </trkpt>
      <trkpt lat="43.23375" lon="6.40555">
        <ele>392.636719</ele>
        <time>2014-07-05T20:24:00Z</time>
      </trkpt>
      <trkpt lat="43.23398" lon="6.40521">
        <ele>387.441406</ele>
        <time>2014-07-05T20:24:05Z</time>
      </trkpt>
      <trkpt lat="43.23419" lon="6.40507">
        <ele>383.601562</ele>
        <time>2014-07-05T20:24:10Z</time>
      </trkpt>
      <trkpt lat="43.23434" lon="6.40476">
        <ele>384.714844</ele>
        <time>2014-07-05T20:24:15Z</time>
      </trkpt>
      <trkpt lat="43.23432" lon="6.40459">
        <ele>387.710938</ele>
        <time>2014-07-05T20:24:20Z</time>
      </trkpt>
      <trkpt lat="43.23414" lon="6.404">
        <ele>395.269531</ele>
        <time>2014-07-05T20:24:25Z</time>
      </trkpt>
      <trkpt lat="43.23412" lon="6.40383">
        <ele>395.691406</ele>
        <time>2014-07-05T20:24:30Z</time>
      </trkpt>
      <trkpt lat="43.23414" lon="6.40354">
        <ele>394.320312</ele>
        <time>2014-07-05T20:24:35Z</time>
      </trkpt>
      <trkpt lat="43.23384" lon="6.40265">
        <ele>401.570312</ele>
        <time>2014-07-05T20:24:40Z</time>
      </trkpt>
      <trkpt lat="43.23384" lon="6.40266">
        <ele>401.554688</ele>
        <time>2014-07-05T20:24:45Z</time>
      </trkpt>
      <trkpt lat="43.23387" lon="6.40248">
        <ele>400.933594</ele>
        <time>2014-07-05T20:24:50Z</time>
      </trkpt>
      <trkpt lat="43.234" lon="6.40239">
        <ele>397.269531</ele>
        <time>2014-07-05T20:24:55Z</time>
      </trkpt>
      <trkpt lat="43.23455" lon="6.40174">
        <ele>403.402344</ele>
        <time>2014-07-05T20:25:00Z</time>
      </trkpt>
      <trkpt lat="43.23455" lon="6.40174">
        <ele>403.464844</ele>
        <time>2014-07-05T20:25:05Z</time>
      </trkpt>
      <trkpt lat="43.23474" lon="6.40158">
        <ele>405</ele>
        <time>2014-07-05T20:25:10Z</time>
      </trkpt>
      <trkpt lat="43.23485" lon="6.40157">
        <ele>403.28125</ele>
        <time>2014-07-05T20:25:15Z</time>
      </trkpt>
      <trkpt lat="43.23485" lon="6.40156">
        <ele>403.492188</ele>
        <time>2014-07-05T20:25:20Z</time>
      </trkpt>
      <trkpt lat="43.23494" lon="6.40151">
        <ele>403.644531</ele>
        <time>2014-07-05T20:25:25Z</time>
      </trkpt>
      <trkpt lat="43.235" lon="6.40141">
        <ele>405.738281</ele>
        <time>2014-07-05T20:25:30Z</time>
      </trkpt>
      <trkpt lat="43.23504" lon="6.40084">
        <ele>417.65625</ele>
        <time>2014-07-05T20:25:35Z</time>
      </trkpt>
      <trkpt lat="43.23502" lon="6.40076">
        <ele>418.089844</ele>
        <time>2014-07-05T20:25:40Z</time>
      </trkpt>
      <trkpt lat="43.23503" lon="6.40067">
        <ele>417.367188</ele>
        <time>2014-07-05T20:25:45Z</time>
      </trkpt>
      <trkpt lat="43.23496" lon="6.40054">
        <ele>418.066406</ele>
        <time>2014-07-05T20:25:50Z</time>
      </trkpt>
      <trkpt lat="43.23503" lon="6.40067">
        <ele>417.226562</ele>
        <time>2014-07-05T20:25:55Z</time>
      </trkpt>
      <trkpt lat="43.23502" lon="6.40076">
        <ele>418.066406</ele>
        <time>2014-07-05T20:26:00Z</time>
      </trkpt>
      <trkpt lat="43.23502" lon="6.40076">
        <ele>418.089844</ele>
        <time>2014-07-05T20:26:05Z</time>
      </trkpt>
      <trkpt lat="43.23504" lon="6.40085">
        <ele>417.476562</ele>
        <time>2014-07-05T20:26:10Z</time>
      </trkpt>
      <trkpt lat="43.23504" lon="6.40085">
        <ele>417.597656</ele>
        <time>2014-07-05T20:26:15Z</time>
      </trkpt>
      <trkpt lat="43.235" lon="6.4014">
        <ele>406.058594</ele>
        <time>2014-07-05T20:26:20Z</time>
      </trkpt>
      <trkpt lat="43.23493" lon="6.40152">
        <ele>403.316406</ele>
        <time>2014-07-05T20:26:25Z</time>
      </trkpt>
      <trkpt lat="43.23486" lon="6.40156">
        <ele>403.453125</ele>
        <time>2014-07-05T20:26:30Z</time>
      </trkpt>
      <trkpt lat="43.23473" lon="6.4016">
        <ele>404.8125</ele>
        <time>2014-07-05T20:26:35Z</time>
      </trkpt>
      <trkpt lat="43.23455" lon="6.40174">
        <ele>403.527344</ele>
        <time>2014-07-05T20:26:40Z</time>
      </trkpt>
      <trkpt lat="43.234" lon="6.40239">
        <ele>397.296875</ele>
        <time>2014-07-05T20:26:45Z</time>
      </trkpt>
      <trkpt lat="43.23388" lon="6.40248">
        <ele>400.632812</ele>
        <time>2014-07-05T20:26:50Z</time>
      </trkpt>
      <trkpt lat="43.23384" lon="6.40266">
        <ele>401.796875</ele>
        <time>2014-07-05T20:26:55Z</time>
      </trkpt>
      <trkpt lat="43.23384" lon="6.40266">
        <ele>401.675781</ele>
        <time>2014-07-05T20:27:00Z</time>
      </trkpt>
      <trkpt lat="43.23414" lon="6.40353">
        <ele>394.355469</ele>
        <time>2014-07-05T20:27:05Z</time>
      </trkpt>
      <trkpt lat="43.23412" lon="6.40383">
        <ele>395.800781</ele>
        <time>2014-07-05T20:27:10Z</time>
      </trkpt>
      <trkpt lat="43.23414" lon="6.404">
        <ele>395.386719</ele>
        <time>2014-07-05T20:27:15Z</time>
      </trkpt>
      <trkpt lat="43.23433" lon="6.40459">
        <ele>387.570312</ele>
        <time>2014-07-05T20:27:20Z</time>
      </trkpt>
      <trkpt lat="43.23434" lon="6.40477">
        <ele>384.660156</ele>
        <time>2014-07-05T20:27:25Z</time>
      </trkpt>
      <trkpt lat="43.23419" lon="6.40507">
        <ele>383.667969</ele>
        <time>2014-07-05T20:27:30Z</time>
      </trkpt>
      <trkpt lat="43.23399" lon="6.40521">
        <ele>387.238281</ele>
        <time>2014-07-05T20:27:35Z</time>
      </trkpt>
      <trkpt lat="43.23375" lon="6.40555">
        <ele>392.507812</ele>
        <time>2014-07-05T20:27:40Z</time>
      </trkpt>
      <trkpt lat="43.23369" lon="6.40575">
        <ele>397.253906</ele>
        <time>2014-07-05T20:27:45Z</time>
      </trkpt>
      <trkpt lat="43.23376" lon="6.40587">
        <ele>397.972656</ele>
        <time>2014-07-05T20:27:50Z</time>
      </trkpt>
      <trkpt lat="43.23376" lon="6.40587">
        <ele>397.90625</ele>
        <time>2014-07-05T20:27:55Z</time>
      </trkpt>
      <trkpt lat="43.23391" lon="6.40592">
        <ele>395.585938</ele>
        <time>2014-07-05T20:28:00Z</time>
      </trkpt>
      <trkpt lat="43.23391" lon="6.40592">
        <ele>395.492188</ele>
        <time>2014-07-05T20:28:05Z</time>
      </trkpt>
      <trkpt lat="43.23431" lon="6.40613">
        <ele>389.496094</ele>
        <time>2014-07-05T20:28:10Z</time>
      </trkpt>
      <trkpt lat="43.23449" lon="6.40623">
        <ele>387.78125</ele>
        <time>2014-07-05T20:28:15Z</time>
      </trkpt>
      <trkpt lat="43.23508" lon="6.40681">
        <ele>388.394531</ele>
        <time>2014-07-05T20:28:20Z</time>
      </trkpt>
      <trkpt lat="43.23563" lon="6.40711">
        <ele>381.441406</ele>
        <time>2014-07-05T20:28:25Z</time>
      </trkpt>
      <trkpt lat="43.23577" lon="6.40724">
        <ele>379.753906</ele>
        <time>2014-07-05T20:28:30Z</time>
      </trkpt>
      <trkpt lat="43.23593" lon="6.40751">
        <ele>379.648438</ele>
        <time>2014-07-05T20:28:35Z</time>
      </trkpt>
      <trkpt lat="43.23616" lon="6.40799">
        <ele>375.804688</ele>
        <time>2014-07-05T20:28:40Z</time>
      </trkpt>
      <trkpt lat="43.23622" lon="6.40846">
        <ele>371.597656</ele>
        <time>2014-07-05T20:28:45Z</time>
      </trkpt>
      <trkpt lat="43.23611" lon="6.40884">
        <ele>367.25</ele>
        <time>2014-07-05T20:28:50Z</time>
      </trkpt>
      <trkpt lat="43.23592" lon="6.40913">
        <ele>365.96875</ele>
        <time>2014-07-05T20:28:55Z</time>
      </trkpt>
      <trkpt lat="43.23579" lon="6.40927">
        <ele>366.339844</ele>
        <time>2014-07-05T20:29:00Z</time>
      </trkpt>
      <trkpt lat="43.23568" lon="6.40931">
        <ele>369.167969</ele>
        <time>2014-07-05T20:29:05Z</time>
      </trkpt>
      <trkpt lat="43.23553" lon="6.40941">
        <ele>371.070312</ele>
        <time>2014-07-05T20:29:10Z</time>
      </trkpt>
      <trkpt lat="43.23529" lon="6.40978">
        <ele>370.515625</ele>
        <time>2014-07-05T20:29:15Z</time>
      </trkpt>
      <trkpt lat="43.235" lon="6.4101">
        <ele>371.046875</ele>
        <time>2014-07-05T20:29:20Z</time>
      </trkpt>
      <trkpt lat="43.23469" lon="6.41032">
        <ele>372.457031</ele>
        <time>2014-07-05T20:29:25Z</time>
      </trkpt>
      <trkpt lat="43.23445" lon="6.41046">
        <ele>372.324219</ele>
        <time>2014-07-05T20:29:30Z</time>
      </trkpt>
      <trkpt lat="43.23425" lon="6.41064">
        <ele>370.457031</ele>
        <time>2014-07-05T20:29:35Z</time>
      </trkpt>
      <trkpt lat="43.23425" lon="6.41065">
        <ele>370.332031</ele>
        <time>2014-07-05T20:29:40Z</time>
      </trkpt>
      <trkpt lat="43.23409" lon="6.41089">
        <ele>366.121094</ele>
        <time>2014-07-05T20:29:45Z</time>
      </trkpt>
      <trkpt lat="43.23356" lon="6.41135">
        <ele>369.507812</ele>
        <time>2014-07-05T20:29:50Z</time>
      </trkpt>
      <trkpt lat="43.23338" lon="6.4115">
        <ele>371.164062</ele>
        <time>2014-07-05T20:29:55Z</time>
      </trkpt>
      <trkpt lat="43.23337" lon="6.4115">
        <ele>371.21875</ele>
        <time>2014-07-05T20:30:00Z</time>
      </trkpt>
      <trkpt lat="43.23325" lon="6.41156">
        <ele>370.761719</ele>
        <time>2014-07-05T20:30:05Z</time>
      </trkpt>
      <trkpt lat="43.23325" lon="6.41155">
        <ele>370.867188</ele>
        <time>2014-07-05T20:30:10Z</time>
      </trkpt>
      <trkpt lat="43.23313" lon="6.41151">
        <ele>371.910156</ele>
        <time>2014-07-05T20:30:15Z</time>
      </trkpt>
      <trkpt lat="43.23287" lon="6.41123">
        <ele>374.597656</ele>
        <time>2014-07-05T20:30:20Z</time>
      </trkpt>
      <trkpt lat="43.23264" lon="6.4111">
        <ele>372.167969</ele>
        <time>2014-07-05T20:30:25Z</time>
      </trkpt>
      <trkpt lat="43.2321" lon="6.41096">
        <ele>367.742188</ele>
        <time>2014-07-05T20:30:30Z</time>
      </trkpt>
      <trkpt lat="43.23168" lon="6.41067">
        <ele>368.351562</ele>
        <time>2014-07-05T20:30:35Z</time>
      </trkpt>
      <trkpt lat="43.23155" lon="6.41047">
        <ele>369.242188</ele>
        <time>2014-07-05T20:30:40Z</time>
      </trkpt>
      <trkpt lat="43.23155" lon="6.41044">
        <ele>369.722656</ele>
        <time>2014-07-05T20:30:45Z</time>
      </trkpt>
      <trkpt lat="43.23131" lon="6.40982">
        <ele>372.730469</ele>
        <time>2014-07-05T20:30:50Z</time>
      </trkpt>
      <trkpt lat="43.23131" lon="6.40982">
        <ele>372.671875</ele>
        <time>2014-07-05T20:30:55Z</time>
      </trkpt>
      <trkpt lat="43.2312" lon="6.40949">
        <ele>373.628906</ele>
        <time>2014-07-05T20:31:00Z</time>
      </trkpt>
      <trkpt lat="43.23093" lon="6.40898">
        <ele>373.296875</ele>
        <time>2014-07-05T20:31:05Z</time>
      </trkpt>
      <trkpt lat="43.23088" lon="6.409">
        <ele>371.632812</ele>
        <time>2014-07-05T20:31:10Z</time>
      </trkpt>
      <trkpt lat="43.23082" lon="6.40935">
        <ele>364.683594</ele>
        <time>2014-07-05T20:31:15Z</time>
      </trkpt>
      <trkpt lat="43.23082" lon="6.40974">
        <ele>358</ele>
        <time>2014-07-05T20:31:20Z</time>
      </trkpt>
      <trkpt lat="43.23081" lon="6.40974">
        <ele>357.941406</ele>
        <time>2014-07-05T20:31:25Z</time>
      </trkpt>
      <trkpt lat="43.23067" lon="6.41033">
        <ele>345.792969</ele>
        <time>2014-07-05T20:31:30Z</time>
      </trkpt>
      <trkpt lat="43.23059" lon="6.41051">
        <ele>341.746094</ele>
        <time>2014-07-05T20:31:35Z</time>
      </trkpt>
      <trkpt lat="43.23044" lon="6.41075">
        <ele>339.601562</ele>
        <time>2014-07-05T20:31:40Z</time>
      </trkpt>
      <trkpt lat="43.23" lon="6.41107">
        <ele>334.53125</ele>
        <time>2014-07-05T20:31:45Z</time>
      </trkpt>
      <trkpt lat="43.22991" lon="6.41111">
        <ele>334.632812</ele>
        <time>2014-07-05T20:31:50Z</time>
      </trkpt>
      <trkpt lat="43.22982" lon="6.41112">
        <ele>335.804688</ele>
        <time>2014-07-05T20:31:55Z</time>
      </trkpt>
      <trkpt lat="43.22982" lon="6.41111">
        <ele>335.886719</ele>
        <time>2014-07-05T20:32:00Z</time>
      </trkpt>
      <trkpt lat="43.2295" lon="6.41085">
        <ele>343.191406</ele>
        <time>2014-07-05T20:32:05Z</time>
      </trkpt>
      <trkpt lat="43.22944" lon="6.41076">
        <ele>344.570312</ele>
        <time>2014-07-05T20:32:10Z</time>
      </trkpt>
      <trkpt lat="43.22936" lon="6.41035">
        <ele>352.457031</ele>
        <time>2014-07-05T20:32:15Z</time>
      </trkpt>
      <trkpt lat="43.2293" lon="6.41031">
        <ele>352.046875</ele>
        <time>2014-07-05T20:32:20Z</time>
      </trkpt>
      <trkpt lat="43.22928" lon="6.41038">
        <ele>349.910156</ele>
        <time>2014-07-05T20:32:25Z</time>
      </trkpt>
      <trkpt lat="43.22922" lon="6.41058">
        <ele>344.347656</ele>
        <time>2014-07-05T20:32:30Z</time>
      </trkpt>
      <trkpt lat="43.22908" lon="6.41081">
        <ele>340.730469</ele>
        <time>2014-07-05T20:32:35Z</time>
      </trkpt>
      <trkpt lat="43.22908" lon="6.4108">
        <ele>340.792969</ele>
        <time>2014-07-05T20:32:40Z</time>
      </trkpt>
      <trkpt lat="43.22903" lon="6.41103">
        <ele>337.410156</ele>
        <time>2014-07-05T20:32:45Z</time>
      </trkpt>
      <trkpt lat="43.22906" lon="6.41124">
        <ele>333.582031</ele>
        <time>2014-07-05T20:32:50Z</time>
      </trkpt>
      <trkpt lat="43.22918" lon="6.41201">
        <ele>320.84375</ele>
        <time>2014-07-05T20:32:55Z</time>
      </trkpt>
      <trkpt lat="43.22917" lon="6.41253">
        <ele>318.671875</ele>
        <time>2014-07-05T20:33:00Z</time>
      </trkpt>
      <trkpt lat="43.22909" lon="6.41302">
        <ele>318.945312</ele>
        <time>2014-07-05T20:33:05Z</time>
      </trkpt>
      <trkpt lat="43.22911" lon="6.41351">
        <ele>317.550781</ele>
        <time>2014-07-05T20:33:10Z</time>
      </trkpt>
      <trkpt lat="43.22914" lon="6.41395">
        <ele>316.121094</ele>
        <time>2014-07-05T20:33:15Z</time>
      </trkpt>
      <trkpt lat="43.22914" lon="6.41395">
        <ele>316.125</ele>
        <time>2014-07-05T20:33:20Z</time>
      </trkpt>
      <trkpt lat="43.22913" lon="6.41437">
        <ele>315.707031</ele>
        <time>2014-07-05T20:33:25Z</time>
      </trkpt>
      <trkpt lat="43.22914" lon="6.41453">
        <ele>315.128906</ele>
        <time>2014-07-05T20:33:30Z</time>
      </trkpt>
      <trkpt lat="43.22925" lon="6.41495">
        <ele>313.308594</ele>
        <time>2014-07-05T20:33:35Z</time>
      </trkpt>
      <trkpt lat="43.22933" lon="6.41509">
        <ele>312.289062</ele>
        <time>2014-07-05T20:33:40Z</time>
      </trkpt>
      <trkpt lat="43.22919" lon="6.41513">
        <ele>314.421875</ele>
        <time>2014-07-05T20:33:45Z</time>
      </trkpt>
      <trkpt lat="43.22919" lon="6.41513">
        <ele>314.433594</ele>
        <time>2014-07-05T20:33:50Z</time>
      </trkpt>
      <trkpt lat="43.22897" lon="6.41534">
        <ele>311.519531</ele>
        <time>2014-07-05T20:33:55Z</time>
      </trkpt>
      <trkpt lat="43.22874" lon="6.41536">
        <ele>307.746094</ele>
        <time>2014-07-05T20:34:00Z</time>
      </trkpt>
      <trkpt lat="43.22848" lon="6.41531">
        <ele>304.445312</ele>
        <time>2014-07-05T20:34:05Z</time>
      </trkpt>
      <trkpt lat="43.22822" lon="6.41516">
        <ele>302.980469</ele>
        <time>2014-07-05T20:34:10Z</time>
      </trkpt>
      <trkpt lat="43.22789" lon="6.41478">
        <ele>303.960938</ele>
        <time>2014-07-05T20:34:15Z</time>
      </trkpt>
      <trkpt lat="43.22741" lon="6.41422">
        <ele>299.113281</ele>
        <time>2014-07-05T20:34:20Z</time>
      </trkpt>
      <trkpt lat="43.22767" lon="6.41527">
        <ele>283.519531</ele>
        <time>2014-07-05T20:34:25Z</time>
      </trkpt>
      <trkpt lat="43.22769" lon="6.41572">
        <ele>274.570312</ele>
        <time>2014-07-05T20:34:30Z</time>
      </trkpt>
      <trkpt lat="43.22774" lon="6.41598">
        <ele>269.003906</ele>
        <time>2014-07-05T20:34:35Z</time>
      </trkpt>
      <trkpt lat="43.22774" lon="6.41598">
        <ele>268.898438</ele>
        <time>2014-07-05T20:34:40Z</time>
      </trkpt>
      <trkpt lat="43.22779" lon="6.41642">
        <ele>254.992188</ele>
        <time>2014-07-05T20:34:45Z</time>
      </trkpt>
      <trkpt lat="43.22808" lon="6.41666">
        <ele>249.179688</ele>
        <time>2014-07-05T20:34:50Z</time>
      </trkpt>
      <trkpt lat="43.22846" lon="6.41675">
        <ele>259.917969</ele>
        <time>2014-07-05T20:34:55Z</time>
      </trkpt>
      <trkpt lat="43.22856" lon="6.41684">
        <ele>262.355469</ele>
        <time>2014-07-05T20:35:00Z</time>
      </trkpt>
      <trkpt lat="43.22861" lon="6.41696">
        <ele>262.476562</ele>
        <time>2014-07-05T20:35:05Z</time>
      </trkpt>
      <trkpt lat="43.2287" lon="6.41729">
        <ele>258.984375</ele>
        <time>2014-07-05T20:35:10Z</time>
      </trkpt>
      <trkpt lat="43.2287" lon="6.41729">
        <ele>259.070312</ele>
        <time>2014-07-05T20:35:15Z</time>
      </trkpt>
      <trkpt lat="43.22873" lon="6.41753">
        <ele>254.453125</ele>
        <time>2014-07-05T20:35:20Z</time>
      </trkpt>
      <trkpt lat="43.22874" lon="6.41753">
        <ele>254.953125</ele>
        <time>2014-07-05T20:35:25Z</time>
      </trkpt>
      <trkpt lat="43.22884" lon="6.41773">
        <ele>255.886719</ele>
        <time>2014-07-05T20:35:30Z</time>
      </trkpt>
      <trkpt lat="43.22896" lon="6.41803">
        <ele>254.328125</ele>
        <time>2014-07-05T20:35:35Z</time>
      </trkpt>
      <trkpt lat="43.22904" lon="6.4181">
        <ele>256.65625</ele>
        <time>2014-07-05T20:35:40Z</time>
      </trkpt>
      <trkpt lat="43.22909" lon="6.41851">
        <ele>249.296875</ele>
        <time>2014-07-05T20:35:45Z</time>
      </trkpt>
      <trkpt lat="43.22919" lon="6.4191">
        <ele>238.335938</ele>
        <time>2014-07-05T20:35:50Z</time>
      </trkpt>
      <trkpt lat="43.22955" lon="6.41943">
        <ele>241.839844</ele>
        <time>2014-07-05T20:35:55Z</time>
      </trkpt>
      <trkpt lat="43.22953" lon="6.41989">
        <ele>227.128906</ele>
        <time>2014-07-05T20:36:00Z</time>
      </trkpt>
      <trkpt lat="43.22955" lon="6.42011">
        <ele>220.046875</ele>
        <time>2014-07-05T20:36:05Z</time>
      </trkpt>
      <trkpt lat="43.22961" lon="6.42042">
        <ele>209.644531</ele>
        <time>2014-07-05T20:36:10Z</time>
      </trkpt>
      <trkpt lat="43.22988" lon="6.4208">
        <ele>196.167969</ele>
        <time>2014-07-05T20:36:15Z</time>
      </trkpt>
      <trkpt lat="43.23007" lon="6.42092">
        <ele>190.082031</ele>
        <time>2014-07-05T20:36:20Z</time>
      </trkpt>
      <trkpt lat="43.22978" lon="6.42119">
        <ele>182.042969</ele>
        <time>2014-07-05T20:36:25Z</time>
      </trkpt>
      <trkpt lat="43.2298" lon="6.42136">
        <ele>174.992188</ele>
        <time>2014-07-05T20:36:30Z</time>
      </trkpt>
      <trkpt lat="43.22982" lon="6.42136">
        <ele>174.554688</ele>
        <time>2014-07-05T20:36:35Z</time>
      </trkpt>
      <trkpt lat="43.22999" lon="6.42154">
        <ele>165.644531</ele>
        <time>2014-07-05T20:36:40Z</time>
      </trkpt>
      <trkpt lat="43.22999" lon="6.42153">
        <ele>166.175781</ele>
        <time>2014-07-05T20:36:45Z</time>
      </trkpt>
      <trkpt lat="43.23031" lon="6.4214">
        <ele>171.683594</ele>
        <time>2014-07-05T20:36:50Z</time>
      </trkpt>
      <trkpt lat="43.23065" lon="6.42138">
        <ele>177.050781</ele>
        <time>2014-07-05T20:36:55Z</time>
      </trkpt>
      <trkpt lat="43.23101" lon="6.42198">
        <ele>162.933594</ele>
        <time>2014-07-05T20:37:00Z</time>
      </trkpt>
      <trkpt lat="43.23157" lon="6.42248">
        <ele>167.273438</ele>
        <time>2014-07-05T20:37:05Z</time>
      </trkpt>
      <trkpt lat="43.23156" lon="6.42248">
        <ele>167.304688</ele>
        <time>2014-07-05T20:37:10Z</time>
      </trkpt>
      <trkpt lat="43.23185" lon="6.42355">
        <ele>151.496094</ele>
        <time>2014-07-05T20:37:15Z</time>
      </trkpt>
      <trkpt lat="43.23212" lon="6.42434">
        <ele>138.5</ele>
        <time>2014-07-05T20:37:20Z</time>
      </trkpt>
      <trkpt lat="43.23237" lon="6.42448">
        <ele>140.535156</ele>
        <time>2014-07-05T20:37:25Z</time>
      </trkpt>
      <trkpt lat="43.23257" lon="6.42487">
        <ele>133.75</ele>
        <time>2014-07-05T20:37:30Z</time>
      </trkpt>
      <trkpt lat="43.23334" lon="6.42621">
        <ele>112.019531</ele>
        <time>2014-07-05T20:37:35Z</time>
      </trkpt>
      <trkpt lat="43.23367" lon="6.42654">
        <ele>104.101562</ele>
        <time>2014-07-05T20:37:40Z</time>
      </trkpt>
      <trkpt lat="43.23368" lon="6.42655">
        <ele>103.960938</ele>
        <time>2014-07-05T20:37:45Z</time>
      </trkpt>
      <trkpt lat="43.23402" lon="6.42674">
        <ele>95.167969</ele>
        <time>2014-07-05T20:37:50Z</time>
      </trkpt>
      <trkpt lat="43.23369" lon="6.42689">
        <ele>93.519531</ele>
        <time>2014-07-05T20:37:55Z</time>
      </trkpt>
      <trkpt lat="43.23369" lon="6.42689">
        <ele>93.484375</ele>
        <time>2014-07-05T20:38:00Z</time>
      </trkpt>
      <trkpt lat="43.23384" lon="6.42717">
        <ele>84.476562</ele>
        <time>2014-07-05T20:38:05Z</time>
      </trkpt>
      <trkpt lat="43.23368" lon="6.42717">
        <ele>85.605469</ele>
        <time>2014-07-05T20:38:10Z</time>
      </trkpt>
      <trkpt lat="43.23345" lon="6.42707">
        <ele>88.929688</ele>
        <time>2014-07-05T20:38:15Z</time>
      </trkpt>
      <trkpt lat="43.23318" lon="6.42685">
        <ele>92.507812</ele>
        <time>2014-07-05T20:38:20Z</time>
      </trkpt>
      <trkpt lat="43.23289" lon="6.42655">
        <ele>94.941406</ele>
        <time>2014-07-05T20:38:25Z</time>
      </trkpt>
      <trkpt lat="43.23257" lon="6.42631">
        <ele>93.84375</ele>
        <time>2014-07-05T20:38:30Z</time>
      </trkpt>
      <trkpt lat="43.23257" lon="6.42631">
        <ele>93.898438</ele>
        <time>2014-07-05T20:38:35Z</time>
      </trkpt>
      <trkpt lat="43.23231" lon="6.42606">
        <ele>95.378906</ele>
        <time>2014-07-05T20:38:40Z</time>
      </trkpt>
      <trkpt lat="43.23204" lon="6.42604">
        <ele>91.761719</ele>
        <time>2014-07-05T20:38:45Z</time>
      </trkpt>
      <trkpt lat="43.23167" lon="6.42563">
        <ele>95.605469</ele>
        <time>2014-07-05T20:38:50Z</time>
      </trkpt>
      <trkpt lat="43.23167" lon="6.42562">
        <ele>95.695312</ele>
        <time>2014-07-05T20:38:55Z</time>
      </trkpt>
      <trkpt lat="43.23154" lon="6.42538">
        <ele>99.316406</ele>
        <time>2014-07-05T20:39:00Z</time>
      </trkpt>
      <trkpt lat="43.23153" lon="6.42522">
        <ele>102.476562</ele>
        <time>2014-07-05T20:39:05Z</time>
      </trkpt>
      <trkpt lat="43.23144" lon="6.42506">
        <ele>102.734375</ele>
        <time>2014-07-05T20:39:10Z</time>
      </trkpt>
      <trkpt lat="43.23129" lon="6.4249">
        <ele>100.136719</ele>
        <time>2014-07-05T20:39:15Z</time>
      </trkpt>
      <trkpt lat="43.23116" lon="6.42456">
        <ele>99.898438</ele>
        <time>2014-07-05T20:39:20Z</time>
      </trkpt>
      <trkpt lat="43.23106" lon="6.42449">
        <ele>99.765625</ele>
        <time>2014-07-05T20:39:25Z</time>
      </trkpt>
      <trkpt lat="43.23098" lon="6.42451">
        <ele>98.71875</ele>
        <time>2014-07-05T20:39:30Z</time>
      </trkpt>
      <trkpt lat="43.23098" lon="6.42451">
        <ele>98.691406</ele>
        <time>2014-07-05T20:39:35Z</time>
      </trkpt>
      <trkpt lat="43.23094" lon="6.42456">
        <ele>97.992188</ele>
        <time>2014-07-05T20:39:40Z</time>
      </trkpt>
      <trkpt lat="43.23093" lon="6.42456">
        <ele>97.964844</ele>
        <time>2014-07-05T20:39:45Z</time>
      </trkpt>
      <trkpt lat="43.23089" lon="6.42474">
        <ele>97.023438</ele>
        <time>2014-07-05T20:39:50Z</time>
      </trkpt>
      <trkpt lat="43.2309" lon="6.42474">
        <ele>97.035156</ele>
        <time>2014-07-05T20:39:55Z</time>
      </trkpt>
      <trkpt lat="43.23107" lon="6.42593">
        <ele>94.457031</ele>
        <time>2014-07-05T20:40:00Z</time>
      </trkpt>
      <trkpt lat="43.23107" lon="6.42593">
        <ele>94.46875</ele>
        <time>2014-07-05T20:40:05Z</time>
      </trkpt>
      <trkpt lat="43.23117" lon="6.42628">
        <ele>92.464844</ele>
        <time>2014-07-05T20:40:10Z</time>
      </trkpt>
      <trkpt lat="43.2312" lon="6.427">
        <ele>98.773438</ele>
        <time>2014-07-05T20:40:15Z</time>
      </trkpt>
      <trkpt lat="43.23126" lon="6.42711">
        <ele>98.199219</ele>
        <time>2014-07-05T20:40:20Z</time>
      </trkpt>
      <trkpt lat="43.2316" lon="6.42717">
        <ele>89.695312</ele>
        <time>2014-07-05T20:40:25Z</time>
      </trkpt>
      <trkpt lat="43.23174" lon="6.42737">
        <ele>86.921875</ele>
        <time>2014-07-05T20:40:30Z</time>
      </trkpt>
      <trkpt lat="43.23178" lon="6.42772">
        <ele>86.777344</ele>
        <time>2014-07-05T20:40:35Z</time>
      </trkpt>
      <trkpt lat="43.23175" lon="6.4284">
        <ele>86.507812</ele>
        <time>2014-07-05T20:40:40Z</time>
      </trkpt>
      <trkpt lat="43.2317" lon="6.42889">
        <ele>85.1875</ele>
        <time>2014-07-05T20:40:45Z</time>
      </trkpt>
      <trkpt lat="43.2317" lon="6.42889">
        <ele>85.277344</ele>
        <time>2014-07-05T20:40:50Z</time>
      </trkpt>
      <trkpt lat="43.23156" lon="6.42946">
        <ele>85.589844</ele>
        <time>2014-07-05T20:40:55Z</time>
      </trkpt>
      <trkpt lat="43.23147" lon="6.42999">
        <ele>84.214844</ele>
        <time>2014-07-05T20:41:00Z</time>
      </trkpt>
      <trkpt lat="43.23131" lon="6.43062">
        <ele>82.800781</ele>
        <time>2014-07-05T20:41:05Z</time>
      </trkpt>
      <trkpt lat="43.23121" lon="6.43077">
        <ele>82.625</ele>
        <time>2014-07-05T20:41:10Z</time>
      </trkpt>
      <trkpt lat="43.23092" lon="6.43087">
        <ele>88.082031</ele>
        <time>2014-07-05T20:41:15Z</time>
      </trkpt>
      <trkpt lat="43.23064" lon="6.43099">
        <ele>94.800781</ele>
        <time>2014-07-05T20:41:20Z</time>
      </trkpt>
      <trkpt lat="43.23058" lon="6.43117">
        <ele>94.273438</ele>
        <time>2014-07-05T20:41:25Z</time>
      </trkpt>
      <trkpt lat="43.23077" lon="6.43157">
        <ele>87.125</ele>
        <time>2014-07-05T20:41:30Z</time>
      </trkpt>
      <trkpt lat="43.23079" lon="6.43182">
        <ele>86.410156</ele>
        <time>2014-07-05T20:41:35Z</time>
      </trkpt>
      <trkpt lat="43.23074" lon="6.43211">
        <ele>84.730469</ele>
        <time>2014-07-05T20:41:40Z</time>
      </trkpt>
      <trkpt lat="43.23061" lon="6.43233">
        <ele>83.449219</ele>
        <time>2014-07-05T20:41:45Z</time>
      </trkpt>
      <trkpt lat="43.23008" lon="6.43279">
        <ele>88.871094</ele>
        <time>2014-07-05T20:41:50Z</time>
      </trkpt>
      <trkpt lat="43.23006" lon="6.43324">
        <ele>85.917969</ele>
        <time>2014-07-05T20:41:55Z</time>
      </trkpt>
      <trkpt lat="43.22993" lon="6.43349">
        <ele>89.433594</ele>
        <time>2014-07-05T20:42:00Z</time>
      </trkpt>
      <trkpt lat="43.22993" lon="6.4335">
        <ele>89.410156</ele>
        <time>2014-07-05T20:42:05Z</time>
      </trkpt>
      <trkpt lat="43.22999" lon="6.4338">
        <ele>87.175781</ele>
        <time>2014-07-05T20:42:10Z</time>
      </trkpt>
      <trkpt lat="43.22998" lon="6.43408">
        <ele>85.246094</ele>
        <time>2014-07-05T20:42:15Z</time>
      </trkpt>
      <trkpt lat="43.22985" lon="6.43474">
        <ele>85.074219</ele>
        <time>2014-07-05T20:42:20Z</time>
      </trkpt>
      <trkpt lat="43.22985" lon="6.43475">
        <ele>85.070312</ele>
        <time>2014-07-05T20:42:25Z</time>
      </trkpt>
      <trkpt lat="43.22976" lon="6.43536">
        <ele>87.609375</ele>
        <time>2014-07-05T20:42:30Z</time>
      </trkpt>
      <trkpt lat="43.22976" lon="6.43537">
        <ele>87.605469</ele>
        <time>2014-07-05T20:42:35Z</time>
      </trkpt>
      <trkpt lat="43.22972" lon="6.4356">
        <ele>88.671875</ele>
        <time>2014-07-05T20:42:40Z</time>
      </trkpt>
      <trkpt lat="43.22985" lon="6.43605">
        <ele>83.78125</ele>
        <time>2014-07-05T20:42:45Z</time>
      </trkpt>
      <trkpt lat="43.22979" lon="6.43625">
        <ele>84.226562</ele>
        <time>2014-07-05T20:42:50Z</time>
      </trkpt>
      <trkpt lat="43.22968" lon="6.43647">
        <ele>84.367188</ele>
        <time>2014-07-05T20:42:55Z</time>
      </trkpt>
      <trkpt lat="43.22925" lon="6.43673">
        <ele>84.914062</ele>
        <time>2014-07-05T20:43:00Z</time>
      </trkpt>
      <trkpt lat="43.22895" lon="6.43687">
        <ele>85.828125</ele>
        <time>2014-07-05T20:43:05Z</time>
      </trkpt>
      <trkpt lat="43.22874" lon="6.43689">
        <ele>87.058594</ele>
        <time>2014-07-05T20:43:10Z</time>
      </trkpt>
      <trkpt lat="43.22834" lon="6.4368">
        <ele>90.269531</ele>
        <time>2014-07-05T20:43:15Z</time>
      </trkpt>
      <trkpt lat="43.22793" lon="6.43658">
        <ele>94.46875</ele>
        <time>2014-07-05T20:43:20Z</time>
      </trkpt>
      <trkpt lat="43.22784" lon="6.43657">
        <ele>94.324219</ele>
        <time>2014-07-05T20:43:25Z</time>
      </trkpt>
      <trkpt lat="43.22773" lon="6.4366">
        <ele>95.839844</ele>
        <time>2014-07-05T20:43:30Z</time>
      </trkpt>
      <trkpt lat="43.22768" lon="6.43682">
        <ele>94.765625</ele>
        <time>2014-07-05T20:43:35Z</time>
      </trkpt>
      <trkpt lat="43.22774" lon="6.43749">
        <ele>87.589844</ele>
        <time>2014-07-05T20:43:40Z</time>
      </trkpt>
      <trkpt lat="43.22772" lon="6.43773">
        <ele>86.707031</ele>
        <time>2014-07-05T20:43:45Z</time>
      </trkpt>
      <trkpt lat="43.22758" lon="6.43787">
        <ele>89.78125</ele>
        <time>2014-07-05T20:43:50Z</time>
      </trkpt>
      <trkpt lat="43.22758" lon="6.43787">
        <ele>89.625</ele>
        <time>2014-07-05T20:43:55Z</time>
      </trkpt>
      <trkpt lat="43.22753" lon="6.43801">
        <ele>89.65625</ele>
        <time>2014-07-05T20:44:00Z</time>
      </trkpt>
      <trkpt lat="43.22753" lon="6.43801">
        <ele>89.582031</ele>
        <time>2014-07-05T20:44:05Z</time>
      </trkpt>
      <trkpt lat="43.22753" lon="6.43822">
        <ele>87.988281</ele>
        <time>2014-07-05T20:44:10Z</time>
      </trkpt>
      <trkpt lat="43.22726" lon="6.4388">
        <ele>88.242188</ele>
        <time>2014-07-05T20:44:15Z</time>
      </trkpt>
      <trkpt lat="43.22697" lon="6.43925">
        <ele>88.617188</ele>
        <time>2014-07-05T20:44:20Z</time>
      </trkpt>
      <trkpt lat="43.22697" lon="6.43925">
        <ele>88.667969</ele>
        <time>2014-07-05T20:44:25Z</time>
      </trkpt>
      <trkpt lat="43.22681" lon="6.43942">
        <ele>88.53125</ele>
        <time>2014-07-05T20:44:30Z</time>
      </trkpt>
      <trkpt lat="43.2267" lon="6.43949">
        <ele>88.988281</ele>
        <time>2014-07-05T20:44:35Z</time>
      </trkpt>
      <trkpt lat="43.22657" lon="6.43951">
        <ele>89.300781</ele>
        <time>2014-07-05T20:44:40Z</time>
      </trkpt>
      <trkpt lat="43.22657" lon="6.4395">
        <ele>89.359375</ele>
        <time>2014-07-05T20:44:45Z</time>
      </trkpt>
      <trkpt lat="43.22628" lon="6.43942">
        <ele>91.105469</ele>
        <time>2014-07-05T20:44:50Z</time>
      </trkpt>
      <trkpt lat="43.22616" lon="6.43935">
        <ele>92.585938</ele>
        <time>2014-07-05T20:44:55Z</time>
      </trkpt>
      <trkpt lat="43.22582" lon="6.43925">
        <ele>92.34375</ele>
        <time>2014-07-05T20:45:00Z</time>
      </trkpt>
      <trkpt lat="43.22555" lon="6.4392">
        <ele>92.414062</ele>
        <time>2014-07-05T20:45:05Z</time>
      </trkpt>
      <trkpt lat="43.22522" lon="6.43908">
        <ele>95.167969</ele>
        <time>2014-07-05T20:45:10Z</time>
      </trkpt>
      <trkpt lat="43.22522" lon="6.43908">
        <ele>95.179688</ele>
        <time>2014-07-05T20:45:15Z</time>
      </trkpt>
      <trkpt lat="43.22492" lon="6.43888">
        <ele>101.15625</ele>
        <time>2014-07-05T20:45:20Z</time>
      </trkpt>
      <trkpt lat="43.2248" lon="6.43888">
        <ele>102.605469</ele>
        <time>2014-07-05T20:45:25Z</time>
      </trkpt>
      <trkpt lat="43.22501" lon="6.43928">
        <ele>94.976562</ele>
        <time>2014-07-05T20:45:30Z</time>
      </trkpt>
      <trkpt lat="43.22516" lon="6.43963">
        <ele>90.390625</ele>
        <time>2014-07-05T20:45:35Z</time>
      </trkpt>
      <trkpt lat="43.22519" lon="6.43993">
        <ele>89.53125</ele>
        <time>2014-07-05T20:45:40Z</time>
      </trkpt>
      <trkpt lat="43.22516" lon="6.44005">
        <ele>91.421875</ele>
        <time>2014-07-05T20:45:45Z</time>
      </trkpt>
      <trkpt lat="43.22516" lon="6.44005">
        <ele>91.367188</ele>
        <time>2014-07-05T20:45:50Z</time>
      </trkpt>
      <trkpt lat="43.22501" lon="6.44029">
        <ele>99.226562</ele>
        <time>2014-07-05T20:45:55Z</time>
      </trkpt>
      <trkpt lat="43.22498" lon="6.44038">
        <ele>101.71875</ele>
        <time>2014-07-05T20:46:00Z</time>
      </trkpt>
      <trkpt lat="43.22498" lon="6.44038">
        <ele>101.527344</ele>
        <time>2014-07-05T20:46:05Z</time>
      </trkpt>
      <trkpt lat="43.22512" lon="6.44051">
        <ele>101.207031</ele>
        <time>2014-07-05T20:46:10Z</time>
      </trkpt>
      <trkpt lat="43.22512" lon="6.4405">
        <ele>101.136719</ele>
        <time>2014-07-05T20:46:15Z</time>
      </trkpt>
      <trkpt lat="43.22524" lon="6.44057">
        <ele>100.644531</ele>
        <time>2014-07-05T20:46:20Z</time>
      </trkpt>
      <trkpt lat="43.22524" lon="6.44057">
        <ele>100.527344</ele>
        <time>2014-07-05T20:46:25Z</time>
      </trkpt>
      <trkpt lat="43.22534" lon="6.44065">
        <ele>101.003906</ele>
        <time>2014-07-05T20:46:30Z</time>
      </trkpt>
      <trkpt lat="43.22554" lon="6.44088">
        <ele>104.027344</ele>
        <time>2014-07-05T20:46:35Z</time>
      </trkpt>
      <trkpt lat="43.22586" lon="6.4412">
        <ele>103.953125</ele>
        <time>2014-07-05T20:46:40Z</time>
      </trkpt>
      <trkpt lat="43.22608" lon="6.44154">
        <ele>102.988281</ele>
        <time>2014-07-05T20:46:45Z</time>
      </trkpt>
      <trkpt lat="43.22623" lon="6.44193">
        <ele>103.714844</ele>
        <time>2014-07-05T20:46:50Z</time>
      </trkpt>
      <trkpt lat="43.22643" lon="6.44223">
        <ele>99.933594</ele>
        <time>2014-07-05T20:46:55Z</time>
      </trkpt>
      <trkpt lat="43.22643" lon="6.44223">
        <ele>99.863281</ele>
        <time>2014-07-05T20:47:00Z</time>
      </trkpt>
      <trkpt lat="43.22657" lon="6.44247">
        <ele>97.289062</ele>
        <time>2014-07-05T20:47:05Z</time>
      </trkpt>
      <trkpt lat="43.2267" lon="6.44291">
        <ele>93.195312</ele>
        <time>2014-07-05T20:47:10Z</time>
      </trkpt>
      <trkpt lat="43.22671" lon="6.44319">
        <ele>89.769531</ele>
        <time>2014-07-05T20:47:15Z</time>
      </trkpt>
      <trkpt lat="43.2267" lon="6.44319">
        <ele>89.949219</ele>
        <time>2014-07-05T20:47:20Z</time>
      </trkpt>
      <trkpt lat="43.22663" lon="6.44342">
        <ele>86.789062</ele>
        <time>2014-07-05T20:47:25Z</time>
      </trkpt>
      <trkpt lat="43.22663" lon="6.44342">
        <ele>86.867188</ele>
        <time>2014-07-05T20:47:30Z</time>
      </trkpt>
      <trkpt lat="43.22642" lon="6.4436">
        <ele>88.011719</ele>
        <time>2014-07-05T20:47:35Z</time>
      </trkpt>
      <trkpt lat="43.22631" lon="6.44378">
        <ele>88.027344</ele>
        <time>2014-07-05T20:47:40Z</time>
      </trkpt>
      <trkpt lat="43.22619" lon="6.44412">
        <ele>87.097656</ele>
        <time>2014-07-05T20:47:45Z</time>
      </trkpt>
      <trkpt lat="43.2262" lon="6.44456">
        <ele>81.9375</ele>
        <time>2014-07-05T20:47:50Z</time>
      </trkpt>
      <trkpt lat="43.22619" lon="6.44456">
        <ele>82.042969</ele>
        <time>2014-07-05T20:47:55Z</time>
      </trkpt>
      <trkpt lat="43.22615" lon="6.44487">
        <ele>80.671875</ele>
        <time>2014-07-05T20:48:00Z</time>
      </trkpt>
      <trkpt lat="43.22601" lon="6.44512">
        <ele>84.640625</ele>
        <time>2014-07-05T20:48:05Z</time>
      </trkpt>
      <trkpt lat="43.22601" lon="6.44542">
        <ele>81.402344</ele>
        <time>2014-07-05T20:48:10Z</time>
      </trkpt>
      <trkpt lat="43.226" lon="6.44569">
        <ele>79.148438</ele>
        <time>2014-07-05T20:48:15Z</time>
      </trkpt>
      <trkpt lat="43.2258" lon="6.44598">
        <ele>86.101562</ele>
        <time>2014-07-05T20:48:20Z</time>
      </trkpt>
      <trkpt lat="43.2258" lon="6.44598">
        <ele>86.089844</ele>
        <time>2014-07-05T20:48:25Z</time>
      </trkpt>
      <trkpt lat="43.22578" lon="6.44614">
        <ele>86.683594</ele>
        <time>2014-07-05T20:48:30Z</time>
      </trkpt>
      <trkpt lat="43.22578" lon="6.44615">
        <ele>86.683594</ele>
        <time>2014-07-05T20:48:35Z</time>
      </trkpt>
      <trkpt lat="43.22575" lon="6.44655">
        <ele>88.925781</ele>
        <time>2014-07-05T20:48:40Z</time>
      </trkpt>
      <trkpt lat="43.22583" lon="6.44678">
        <ele>87.507812</ele>
        <time>2014-07-05T20:48:45Z</time>
      </trkpt>
      <trkpt lat="43.22604" lon="6.44715">
        <ele>80.214844</ele>
        <time>2014-07-05T20:48:50Z</time>
      </trkpt>
      <trkpt lat="43.22605" lon="6.44733">
        <ele>79.617188</ele>
        <time>2014-07-05T20:48:55Z</time>
      </trkpt>
      <trkpt lat="43.22598" lon="6.44757">
        <ele>81.351562</ele>
        <time>2014-07-05T20:49:00Z</time>
      </trkpt>
      <trkpt lat="43.2258" lon="6.44785">
        <ele>82.359375</ele>
        <time>2014-07-05T20:49:05Z</time>
      </trkpt>
      <trkpt lat="43.22565" lon="6.44788">
        <ele>84.609375</ele>
        <time>2014-07-05T20:49:10Z</time>
      </trkpt>
      <trkpt lat="43.22566" lon="6.44788">
        <ele>84.5625</ele>
        <time>2014-07-05T20:49:15Z</time>
      </trkpt>
      <trkpt lat="43.22551" lon="6.44808">
        <ele>85.296875</ele>
        <time>2014-07-05T20:49:20Z</time>
      </trkpt>
      <trkpt lat="43.22551" lon="6.44825">
        <ele>84.351562</ele>
        <time>2014-07-05T20:49:25Z</time>
      </trkpt>
      <trkpt lat="43.22573" lon="6.44873">
        <ele>77.964844</ele>
        <time>2014-07-05T20:49:30Z</time>
      </trkpt>
      <trkpt lat="43.22573" lon="6.44886">
        <ele>77.417969</ele>
        <time>2014-07-05T20:49:35Z</time>
      </trkpt>
      <trkpt lat="43.22566" lon="6.44904">
        <ele>78.835938</ele>
        <time>2014-07-05T20:49:40Z</time>
      </trkpt>
      <trkpt lat="43.22552" lon="6.44927">
        <ele>81.980469</ele>
        <time>2014-07-05T20:49:45Z</time>
      </trkpt>
      <trkpt lat="43.22553" lon="6.44933">
        <ele>81.617188</ele>
        <time>2014-07-05T20:49:50Z</time>
      </trkpt>
    </trkseg>
  </trk>
</gpx>